Time;durP1;ratioP1;P1;durP2;ratioP2;P2;SDS_P1;SDS_P2;PMS_P1;PMS_P2;Temp;Humidity;BMP_temperature;BMP_pressure;BME280_temperature;BME280_humidity;BME280_pressure;Samples;Min_cycle;Max_cycle;Signal;HPM_P1;HPM_P2
2023/09/17 00:00:22;;;;;;;2.08;1.83;;;18.50;78.00;;;;;;6245196;22;20317;-74
2023/09/17 00:02:48;;;;;;;2.75;2.00;;;18.60;78.00;;;;;;6187489;22;20004;-76
2023/09/17 00:05:14;;;;;;;3.67;1.88;;;18.60;77.90;;;;;;6244773;22;20087;-76
2023/09/17 00:07:40;;;;;;;2.83;1.90;;;18.60;77.90;;;;;;6192860;22;20008;-76
2023/09/17 00:10:06;;;;;;;2.22;1.70;;;18.50;77.80;;;;;;6213223;23;20008;-75
2023/09/17 00:12:32;;;;;;;2.22;1.63;;;18.60;77.80;;;;;;6245889;22;20008;-75
2023/09/17 00:14:58;;;;;;;3.58;2.00;;;18.50;77.70;;;;;;6241459;22;20004;-75
2023/09/17 00:17:24;;;;;;;2.50;1.70;;;18.50;77.60;;;;;;6184976;22;20326;-75
2023/09/17 00:19:50;;;;;;;2.35;1.63;;;18.50;77.60;;;;;;6219259;22;20047;-76
2023/09/17 00:22:16;;;;;;;1.88;1.60;;;18.50;77.70;;;;;;6217465;22;19997;-77
2023/09/17 00:24:42;;;;;;;1.85;1.48;;;18.40;77.70;;;;;;6189471;22;20372;-76
2023/09/17 00:27:08;;;;;;;1.92;1.60;;;18.30;77.70;;;;;;6195006;23;20376;-76
2023/09/17 00:29:34;;;;;;;2.72;1.58;;;18.20;77.80;;;;;;6215351;22;20356;-76
2023/09/17 00:32:00;;;;;;;2.30;1.60;;;18.20;78.00;;;;;;6140453;23;20060;-75
2023/09/17 00:34:26;;;;;;;2.90;1.80;;;18.10;78.20;;;;;;6104694;23;20009;-76
2023/09/17 00:36:51;;;;;;;2.55;1.73;;;18.00;78.20;;;;;;6128413;23;20434;-75
2023/09/17 00:39:18;;;;;;;1.63;1.48;;;18.10;78.30;;;;;;6127344;23;20040;-76
2023/09/17 00:41:43;;;;;;;2.45;1.80;;;18.10;78.20;;;;;;6152877;23;20010;-76
2023/09/17 00:44:09;;;;;;;2.10;1.60;;;18.10;78.20;;;;;;6128201;23;20374;-76
2023/09/17 00:46:37;;;;;;;1.88;1.52;;;18.00;78.00;;;;;;6130307;23;20021;-76
2023/09/17 00:49:04;;;;;;;1.70;1.50;;;18.00;77.90;;;;;;6130172;23;20022;-76
2023/09/17 00:51:30;;;;;;;2.33;1.50;;;18.00;77.90;;;;;;6080745;23;20440;-76
2023/09/17 00:53:58;;;;;;;2.50;1.50;;;18.00;78.00;;;;;;6154086;23;20017;-76
2023/09/17 00:56:25;;;;;;;2.50;1.80;;;17.90;78.00;;;;;;6103949;23;20031;-75
2023/09/17 00:58:52;;;;;;;4.97;1.95;;;17.80;78.10;;;;;;6103799;23;20021;-76
2023/09/17 01:01:20;;;;;;;2.63;1.92;;;17.80;78.20;;;;;;6130155;23;20019;-75
2023/09/17 01:03:46;;;;;;;1.90;1.70;;;17.80;78.30;;;;;;6230399;22;20011;-75
2023/09/17 01:06:12;;;;;;;3.47;1.90;;;17.70;78.40;;;;;;6184728;22;20004;-75
2023/09/17 01:08:40;;;;;;;2.83;1.88;;;17.60;78.40;;;;;;6219199;22;20027;-75
2023/09/17 01:11:09;;;;;;;3.03;2.20;;;17.70;78.60;;;;;;6246102;22;20086;-75
2023/09/17 01:13:39;;;;;;;2.40;2.00;;;17.60;78.50;;;;;;6196658;22;20031;-75
2023/09/17 01:16:05;;;;;;;3.55;1.63;;;17.70;78.60;;;;;;6227012;22;20004;-76
2023/09/17 01:18:32;;;;;;;3.00;2.20;;;17.60;78.60;;;;;;6201556;22;20012;-77
2023/09/17 01:21:04;;;;;;;2.63;1.90;;;17.50;78.70;;;;;;6231404;22;20048;-76
2023/09/17 01:23:39;;;;;;;2.83;2.15;;;17.50;78.70;;;;;;6206423;22;20007;-77
2023/09/17 01:26:26;;;;;;;1.67;1.50;;;17.50;78.90;;;;;;6216394;22;20065;-78
2023/09/17 01:28:54;;;;;;;2.78;1.85;;;17.50;79.10;;;;;;6212661;22;20007;-76
2023/09/17 01:31:21;;;;;;;3.30;2.05;;;17.30;79.10;;;;;;6237940;22;20000;-77
2023/09/17 01:33:47;;;;;;;3.72;1.98;;;17.40;79.30;;;;;;6238911;22;20012;-78
2023/09/17 01:36:22;;;;;;;2.47;1.88;;;17.20;79.40;;;;;;6238284;22;20003;-77
2023/09/17 01:38:52;;;;;;;3.03;1.92;;;17.20;79.60;;;;;;6213549;22;20051;-76
2023/09/17 01:41:19;;;;;;;3.23;2.10;;;17.10;79.70;;;;;;6211538;22;20015;-76
2023/09/17 01:43:45;;;;;;;3.15;2.25;;;17.10;79.70;;;;;;6257521;22;20614;-76
2023/09/17 01:46:11;;;;;;;3.67;2.40;;;17.10;79.90;;;;;;6208447;22;20039;-76
2023/09/17 01:48:38;;;;;;;3.63;2.35;;;17.00;79.90;;;;;;6257153;22;20023;-76
2023/09/17 01:51:05;;;;;;;3.72;2.10;;;17.00;79.90;;;;;;6205372;22;20054;-77
2023/09/17 01:53:32;;;;;;;2.63;1.83;;;17.00;80.00;;;;;;6257125;22;20004;-76
2023/09/17 01:55:59;;;;;;;2.92;2.08;;;17.00;80.10;;;;;;6254431;22;20004;-76
2023/09/17 01:58:25;;;;;;;2.60;1.75;;;16.90;80.10;;;;;;6234311;22;20004;-77
2023/09/17 02:00:52;;;;;;;1.80;1.50;;;16.90;80.20;;;;;;6231149;22;20371;-77
2023/09/17 02:03:18;;;;;;;3.22;1.77;;;16.90;80.20;;;;;;6231879;22;20008;-77
2023/09/17 02:05:44;;;;;;;2.45;1.83;;;16.80;80.10;;;;;;6254072;22;19997;-77
2023/09/17 02:08:10;;;;;;;3.28;2.08;;;16.80;80.20;;;;;;6232403;22;20023;-77
2023/09/17 02:10:36;;;;;;;2.65;2.05;;;16.80;80.20;;;;;;6253068;22;20001;-77
2023/09/17 02:13:02;;;;;;;2.53;1.80;;;16.80;80.20;;;;;;6253920;22;20011;-78
2023/09/17 02:15:28;;;;;;;1.92;1.50;;;16.80;80.10;;;;;;6198492;22;20019;-77
2023/09/17 02:17:54;;;;;;;2.65;1.60;;;16.90;80.10;;;;;;6219949;22;20008;-77
2023/09/17 02:20:20;;;;;;;1.77;1.55;;;16.80;80.10;;;;;;6248912;22;20027;-76
2023/09/17 02:22:46;;;;;;;2.00;1.60;;;16.90;80.20;;;;;;6244060;22;20057;-77
2023/09/17 02:25:11;;;;;;;2.45;1.73;;;16.80;80.10;;;;;;6195920;22;20023;-76
2023/09/17 02:27:38;;;;;;;2.83;1.83;;;16.90;80.30;;;;;;6198828;22;20000;-76
2023/09/17 02:30:05;;;;;;;2.92;1.90;;;16.80;80.20;;;;;;6180867;22;20008;-76
2023/09/17 02:32:31;;;;;;;2.15;1.77;;;16.80;80.20;;;;;;6198304;22;20012;-76
2023/09/17 02:34:57;;;;;;;2.80;1.70;;;16.80;80.30;;;;;;6249642;22;20012;-77
2023/09/17 02:37:23;;;;;;;2.47;1.63;;;16.80;80.30;;;;;;6221110;22;20428;-76
2023/09/17 02:39:49;;;;;;;1.92;1.50;;;16.80;80.30;;;;;;6249123;22;20044;-76
2023/09/17 02:42:16;;;;;;;2.13;1.45;;;16.80;80.30;;;;;;6229382;22;20008;-81
2023/09/17 02:44:42;;;;;;;2.63;1.55;;;16.80;80.30;;;;;;6254168;22;19997;-81
2023/09/17 02:47:09;;;;;;;2.13;1.55;;;16.80;80.40;;;;;;6245041;22;20420;-82
2023/09/17 02:49:35;;;;;;;2.80;1.90;;;16.80;80.60;;;;;;6193135;22;20098;-83
2023/09/17 02:52:01;;;;;;;2.55;1.73;;;16.60;80.70;;;;;;6189595;22;20008;-82
2023/09/17 02:54:27;;;;;;;2.88;1.98;;;16.50;81.00;;;;;;6192167;22;20009;-82
2023/09/17 03:01:06;;;;;;;2.90;2.10;;;16.50;81.70;;;;;;6212951;22;20036;-84
2023/09/17 03:03:53;;;;;;;2.63;1.80;;;16.30;81.80;;;;;;6172629;23;20017;-83
2023/09/17 03:24:31;;;;;;;1.90;1.40;;;16.00;82.40;;;;;;5923960;24;20097;-88
2023/09/17 04:03:36;;;;;;;2.15;1.45;;;15.90;83.20;;;;;;6084152;23;20105;-87
2023/09/17 04:09:38;;;;;;;2.30;1.55;;;15.80;83.10;;;;;;5912233;24;20843;-85
2023/09/17 04:12:11;;;;;;;2.05;1.52;;;15.90;83.20;;;;;;5873195;24;20021;-87
2023/09/17 04:22:07;;;;;;;2.38;1.70;;;15.80;83.60;;;;;;5660958;25;20022;-84
2023/09/17 04:24:50;;;;;;;3.08;1.65;;;15.80;83.70;;;;;;5639066;25;20531;-84
2023/09/17 04:27:17;;;;;;;3.35;1.90;;;15.70;83.70;;;;;;5642506;25;20026;-84
2023/09/17 04:29:46;;;;;;;2.40;1.67;;;15.80;83.80;;;;;;5643835;25;20109;-85
2023/09/17 04:32:14;;;;;;;2.30;1.70;;;15.80;83.90;;;;;;5689141;25;20021;-85
2023/09/17 04:34:48;;;;;;;2.67;1.75;;;15.80;84.00;;;;;;5690185;25;20020;-84
2023/09/17 04:37:19;;;;;;;2.42;1.73;;;15.70;84.10;;;;;;5688306;25;20068;-83
2023/09/17 04:40:08;;;;;;;;;;;15.80;84.20;;;;;;5669183;25;20029;-85
2023/09/17 04:42:36;;;;;;;2.28;1.42;;;15.80;84.20;;;;;;5746014;24;19988;-85
2023/09/17 04:45:10;;;;;;;2.80;1.83;;;15.80;84.20;;;;;;5787994;24;20031;-83
2023/09/17 04:47:39;;;;;;;2.55;1.80;;;15.80;84.40;;;;;;5814715;24;20015;-83
2023/09/17 04:50:08;;;;;;;3.95;1.95;;;15.70;84.40;;;;;;5987905;23;20090;-83
2023/09/17 04:52:37;;;;;;;3.13;2.08;;;15.80;84.50;;;;;;6031646;23;20018;-85
2023/09/17 04:55:06;;;;;;;3.13;2.10;;;15.80;84.60;;;;;;5995147;23;20098;-84
2023/09/17 04:57:32;;;;;;;2.30;1.80;;;15.80;84.70;;;;;;6037650;23;20016;-83
2023/09/17 05:00:10;;;;;;;3.30;1.92;;;15.80;84.70;;;;;;6155635;23;20029;-84
2023/09/17 05:02:38;;;;;;;2.53;1.80;;;15.80;84.80;;;;;;6149087;23;20088;-84
2023/09/17 05:05:09;;;;;;;2.22;1.73;;;15.80;84.80;;;;;;6109361;23;20016;-84
2023/09/17 05:07:38;;;;;;;2.88;1.88;;;15.80;84.90;;;;;;6157682;23;20013;-84
2023/09/17 05:10:06;;;;;;;3.17;1.90;;;15.80;85.00;;;;;;6155434;23;20010;-84
2023/09/17 05:12:56;;;;;;;2.80;1.98;;;15.90;85.10;;;;;;6167959;22;20019;-84
2023/09/17 05:15:22;;;;;;;2.10;1.70;;;15.90;85.30;;;;;;6074326;23;20100;-85
2023/09/17 05:17:55;;;;;;;3.08;1.80;;;15.90;85.20;;;;;;6124474;23;20013;-86
2023/09/17 05:20:24;;;;;;;2.92;2.08;;;15.80;85.20;;;;;;6096041;23;20073;-84
2023/09/17 05:22:50;;;;;;;2.90;1.85;;;15.90;85.30;;;;;;6148162;23;20025;-83
2023/09/17 05:25:18;;;;;;;2.90;2.10;;;15.90;85.30;;;;;;6088668;23;20107;-84
2023/09/17 05:27:51;;;;;;;2.78;1.90;;;15.90;85.40;;;;;;6120535;23;20061;-83
2023/09/17 05:30:17;;;;;;;2.65;1.80;;;15.90;85.50;;;;;;6114454;23;20121;-84
2023/09/17 05:32:51;;;;;;;2.90;1.83;;;15.90;85.60;;;;;;6151194;23;20017;-84
2023/09/17 05:35:20;;;;;;;3.10;1.98;;;15.90;85.70;;;;;;6069455;23;20018;-84
2023/09/17 05:41:42;;;;;;;2.33;1.98;;;15.80;85.80;;;;;;6119683;23;20362;-84
2023/09/17 05:44:08;;;;;;;2.00;1.65;;;16.00;85.80;;;;;;6063618;23;20021;-83
2023/09/17 05:46:35;;;;;;;2.83;2.05;;;16.00;85.80;;;;;;6065928;23;20048;-83
2023/09/17 05:49:17;;;;;;;2.97;2.08;;;16.00;85.90;;;;;;6057858;23;20525;-84
2023/09/17 05:52:02;;;;;;;3.15;1.98;;;16.00;86.00;;;;;;6037461;23;20078;-82
2023/09/17 05:54:27;;;;;;;2.05;1.58;;;15.90;85.90;;;;;;6109003;23;20020;-82
2023/09/17 05:56:56;;;;;;;2.97;2.08;;;16.00;86.00;;;;;;6101403;23;20109;-83
2023/09/17 05:59:24;;;;;;;3.75;2.28;;;16.10;86.10;;;;;;6131426;23;20021;-82
2023/09/17 06:02:48;;;;;;;3.45;2.33;;;16.10;86.10;;;;;;6010490;23;20380;-84
2023/09/17 06:05:17;;;;;;;2.95;2.10;;;16.00;86.30;;;;;;5984985;23;20456;-86
2023/09/17 06:08:54;;;;;;;4.80;2.30;;;16.10;86.30;;;;;;5936517;23;20497;-87
2023/09/17 06:11:49;;;;;;;2.88;2.00;;;16.10;86.40;;;;;;5942223;24;20040;-87
2023/09/17 06:18:19;;;;;;;2.75;1.80;;;16.10;86.40;;;;;;5963293;23;20054;-87
2023/09/17 06:20:59;;;;;;;2.35;1.83;;;16.10;86.50;;;;;;5948019;24;20028;-86
2023/09/17 06:23:27;;;;;;;2.55;1.70;;;16.10;86.40;;;;;;5882399;24;20024;-85
2023/09/17 06:26:16;;;;;;;2.08;1.33;;;16.10;86.50;;;;;;5924621;23;20023;-85
2023/09/17 06:28:45;;;;;;;2.08;1.63;;;16.10;86.70;;;;;;5874755;24;20431;-85
2023/09/17 06:31:11;;;;;;;1.25;1.15;;;16.10;86.70;;;;;;5825988;24;20063;-85
2023/09/17 06:34:24;;;;;;;1.77;1.30;;;16.20;86.70;;;;;;5848689;24;20026;-85
2023/09/17 06:37:45;;;;;;;2.22;1.50;;;16.20;86.80;;;;;;5833953;24;20524;-85
2023/09/17 06:44:14;;;;;;;2.03;1.40;;;16.20;86.90;;;;;;5706762;25;20970;-87
2023/09/17 07:08:54;;;;;;;1.77;1.20;;;16.20;86.90;;;;;;5912486;24;20081;-84
2023/09/17 07:11:36;;;;;;;1.75;1.30;;;16.30;87.00;;;;;;5924103;24;20024;-84
2023/09/17 07:14:09;;;;;;;1.85;1.40;;;16.30;86.90;;;;;;5932271;24;20016;-84
2023/09/17 07:16:36;;;;;;;1.45;1.27;;;16.30;87.00;;;;;;5928493;24;20016;-84
2023/09/17 07:19:05;;;;;;;1.40;1.10;;;16.30;87.10;;;;;;5953596;24;20017;-84
2023/09/17 07:21:32;;;;;;;1.52;1.20;;;16.30;87.10;;;;;;5931254;24;20016;-84
2023/09/17 07:23:57;;;;;;;1.33;1.10;;;16.40;87.20;;;;;;5961526;24;20091;-85
2023/09/17 07:26:23;;;;;;;1.80;1.38;;;16.40;87.10;;;;;;5952247;24;20382;-85
2023/09/17 07:28:49;;;;;;;1.95;1.38;;;16.40;87.20;;;;;;5952308;24;20025;-84
2023/09/17 07:31:15;;;;;;;2.35;1.42;;;16.40;87.20;;;;;;5923996;24;20463;-84
2023/09/17 07:33:42;;;;;;;1.48;1.33;;;16.30;87.20;;;;;;6011527;23;20146;-84
2023/09/17 07:36:09;;;;;;;1.15;1.05;;;16.40;87.20;;;;;;6069479;23;20014;-85
2023/09/17 07:38:35;;;;;;;1.65;1.25;;;16.40;87.20;;;;;;6069708;23;20018;-84
2023/09/17 07:41:02;;;;;;;2.03;1.27;;;16.40;87.20;;;;;;6123393;22;20042;-85
2023/09/17 07:43:28;;;;;;;2.38;1.58;;;16.40;87.30;;;;;;6186402;23;20012;-85
2023/09/17 07:45:54;;;;;;;1.77;1.33;;;16.40;87.30;;;;;;6164154;22;20433;-84
2023/09/17 07:48:23;;;;;;;1.73;1.38;;;16.40;87.40;;;;;;6193127;22;20054;-85
2023/09/17 07:51:01;;;;;;;1.88;1.35;;;16.40;87.40;;;;;;6194724;23;20007;-84
2023/09/17 07:53:27;;;;;;;1.95;1.38;;;16.40;87.40;;;;;;6118402;23;20017;-84
2023/09/17 07:55:53;;;;;;;2.08;1.60;;;16.40;87.40;;;;;;6114547;23;20430;-84
2023/09/17 07:58:19;;;;;;;1.63;1.25;;;16.40;87.50;;;;;;6123401;23;20484;-84
2023/09/17 08:00:45;;;;;;;1.67;1.50;;;16.50;87.50;;;;;;6127770;23;20006;-84
2023/09/17 08:03:17;;;;;;;1.90;1.33;;;16.50;87.50;;;;;;6100529;23;20020;-84
2023/09/17 08:05:45;;;;;;;2.05;1.40;;;16.40;87.40;;;;;;6154097;23;20009;-83
2023/09/17 08:08:11;;;;;;;1.90;1.60;;;16.40;87.40;;;;;;6155009;23;20017;-84
2023/09/17 08:10:37;;;;;;;2.53;1.25;;;16.50;87.50;;;;;;6081836;23;20017;-84
2023/09/17 08:13:04;;;;;;;2.35;1.52;;;16.50;87.50;;;;;;6107340;23;20046;-84
2023/09/17 08:15:30;;;;;;;2.15;1.50;;;16.40;87.40;;;;;;6123442;23;20032;-84
2023/09/17 08:17:56;;;;;;;2.88;1.70;;;16.50;87.50;;;;;;6068176;23;20023;-84
2023/09/17 08:20:23;;;;;;;2.30;1.50;;;16.50;87.50;;;;;;6053228;23;20017;-84
2023/09/17 08:22:51;;;;;;;1.83;1.17;;;16.50;87.50;;;;;;6047533;23;20050;-85
2023/09/17 08:25:17;;;;;;;1.42;1.20;;;16.60;87.60;;;;;;6076466;23;20446;-85
2023/09/17 08:27:44;;;;;;;1.60;1.20;;;16.50;87.50;;;;;;6077649;23;20014;-85
2023/09/17 08:30:11;;;;;;;1.85;1.30;;;16.60;87.50;;;;;;6075953;23;20022;-85
2023/09/17 08:32:40;;;;;;;2.10;1.63;;;16.60;87.40;;;;;;6097594;23;20010;-83
2023/09/17 08:35:07;;;;;;;2.00;1.38;;;16.60;87.40;;;;;;6077679;23;20162;-85
2023/09/17 08:37:58;;;;;;;1.73;1.38;;;16.70;87.50;;;;;;6078380;23;20010;-86
2023/09/17 08:40:27;;;;;;;2.38;1.63;;;16.70;87.50;;;;;;6126893;23;20041;-86
2023/09/17 08:42:54;;;;;;;2.05;1.30;;;16.80;87.60;;;;;;6103607;23;20115;-85
2023/09/17 08:45:21;;;;;;;2.60;1.75;;;16.70;87.50;;;;;;6079717;23;20012;-82
2023/09/17 08:48:13;;;;;;;2.13;1.80;;;16.80;87.50;;;;;;6092918;23;20041;-82
2023/09/17 08:51:13;;;;;;;2.55;1.67;;;16.70;87.40;;;;;;6078586;23;20025;-83
2023/09/17 08:53:44;;;;;;;2.50;1.75;;;16.80;87.50;;;;;;5948103;24;20066;-84
2023/09/17 08:56:16;;;;;;;2.40;1.70;;;16.80;87.50;;;;;;5950484;24;20081;-81
2023/09/17 08:58:53;;;;;;;1.85;1.48;;;16.80;87.40;;;;;;5951600;24;20028;-83
2023/09/17 09:01:44;;;;;;;2.72;1.85;;;16.80;87.50;;;;;;5951021;24;20017;-87
2023/09/17 09:04:39;;;;;;;;;;;16.80;87.60;;;;;;5942877;24;20016;-85
2023/09/17 09:07:23;;;;;;;2.45;1.58;;;16.80;87.40;;;;;;5938862;24;20257;-85
2023/09/17 09:10:06;;;;;;;2.35;1.63;;;16.90;87.50;;;;;;5905697;24;20024;-85
2023/09/17 09:12:41;;;;;;;3.92;1.92;;;16.90;87.50;;;;;;5890163;24;20030;-86
2023/09/17 09:15:10;;;;;;;3.25;1.92;;;16.90;87.50;;;;;;5902524;24;20013;-82
2023/09/17 09:17:36;;;;;;;2.17;1.40;;;16.90;87.50;;;;;;5857633;24;20025;-84
2023/09/17 09:20:13;;;;;;;2.60;1.70;;;16.80;87.50;;;;;;5897192;24;20119;-88
2023/09/17 09:22:40;;;;;;;2.38;1.60;;;16.90;87.60;;;;;;5937881;24;20016;-82
2023/09/17 09:25:11;;;;;;;2.85;1.83;;;16.90;87.60;;;;;;5994402;23;20011;-83
2023/09/17 09:27:41;;;;;;;3.40;1.88;;;16.90;87.60;;;;;;5982180;23;20016;-84
2023/09/17 09:30:20;;;;;;;3.15;2.08;;;16.90;87.60;;;;;;5954864;24;20008;-82
2023/09/17 09:32:46;;;;;;;2.78;1.70;;;17.00;87.70;;;;;;5981983;23;20024;-83
2023/09/17 09:35:27;;;;;;;2.78;1.52;;;17.00;87.70;;;;;;5974685;23;20052;-85
2023/09/17 09:37:53;;;;;;;2.38;1.65;;;17.00;87.60;;;;;;5994670;23;20019;-83
2023/09/17 09:40:21;;;;;;;2.70;1.88;;;17.10;87.60;;;;;;6072972;23;20170;-85
2023/09/17 09:42:48;;;;;;;2.75;1.95;;;17.00;87.50;;;;;;6070328;23;20093;-82
2023/09/17 09:45:15;;;;;;;2.35;1.80;;;17.20;87.50;;;;;;6058955;23;20471;-81
2023/09/17 09:47:48;;;;;;;3.42;2.35;;;17.30;87.50;;;;;;6079832;23;20529;-80
2023/09/17 10:01:57;;;;;;;2.75;1.67;;;17.60;87.10;;;;;;5949702;24;20031;-86
2023/09/17 10:15:04;;;;;;;3.90;2.20;;;17.90;86.80;;;;;;5908864;24;20128;-85
2023/09/17 10:17:35;;;;;;;3.97;2.47;;;17.90;86.80;;;;;;5889866;24;20355;-85
2023/09/17 10:20:24;;;;;;;;;;;18.00;86.80;;;;;;5924404;24;20033;-86
2023/09/17 10:22:51;;;;;;;3.10;2.05;;;18.10;86.80;;;;;;5918238;24;19968;-84
2023/09/17 10:29:43;;;;;;;3.13;2.13;;;18.20;86.70;;;;;;5892556;24;20131;-85
2023/09/17 10:35:07;;;;;;;3.38;1.90;;;18.40;86.40;;;;;;5889952;24;20041;-84
2023/09/17 10:37:35;;;;;;;3.53;2.35;;;18.50;86.40;;;;;;5837069;24;20542;-84
2023/09/17 10:40:02;;;;;;;4.25;2.55;;;18.50;86.50;;;;;;5906361;24;20527;-83
2023/09/17 10:42:31;;;;;;;4.28;2.67;;;18.60;86.50;;;;;;5905836;24;20048;-83
2023/09/17 10:45:02;;;;;;;4.90;2.90;;;18.70;86.50;;;;;;5951605;24;20013;-82
2023/09/17 10:47:28;;;;;;;4.03;2.50;;;18.70;86.50;;;;;;5930459;24;20388;-83
2023/09/17 10:50:58;;;;;;;3.15;2.05;;;18.80;86.50;;;;;;5929332;24;20537;-86
2023/09/17 10:53:27;;;;;;;5.28;2.65;;;18.80;86.70;;;;;;5814580;24;20473;-85
2023/09/17 10:56:23;;;;;;;4.97;2.47;;;18.90;86.70;;;;;;5794586;24;20052;-81
2023/09/17 10:58:57;;;;;;;4.40;2.63;;;18.90;86.80;;;;;;5777463;24;20027;-84
2023/09/17 11:01:28;;;;;;;4.45;2.72;;;18.90;86.90;;;;;;5759328;24;20016;-82
2023/09/17 11:04:02;;;;;;;5.10;2.92;;;18.90;86.90;;;;;;5785392;24;20128;-83
2023/09/17 11:06:34;;;;;;;4.10;2.78;;;18.90;87.00;;;;;;5845154;24;20149;-82
2023/09/17 11:09:01;;;;;;;5.13;3.45;;;19.00;87.10;;;;;;5847884;24;20017;-80
2023/09/17 11:11:30;;;;;;;4.82;2.85;;;19.00;87.00;;;;;;5866384;24;20068;-83
2023/09/17 11:13:57;;;;;;;5.13;3.35;;;19.10;87.10;;;;;;5869259;24;20030;-83
2023/09/17 11:16:26;;;;;;;4.65;3.13;;;19.20;87.00;;;;;;5869804;24;20014;-80
2023/09/17 11:19:13;;;;;;;6.20;3.75;;;19.20;87.00;;;;;;5847000;24;20029;-80
2023/09/17 11:21:42;;;;;;;5.70;3.40;;;19.40;86.90;;;;;;5881823;24;20013;-80
2023/09/17 11:24:12;;;;;;;4.30;2.90;;;19.40;86.70;;;;;;5913867;24;20010;-80
2023/09/17 11:26:40;;;;;;;4.63;3.20;;;19.50;86.70;;;;;;5893731;24;20018;-80
2023/09/17 11:29:07;;;;;;;4.15;2.55;;;19.50;86.60;;;;;;5920038;23;20343;-80
2023/09/17 11:31:36;;;;;;;6.30;3.80;;;19.60;86.60;;;;;;6118429;23;20006;-81
2023/09/17 11:34:06;;;;;;;4.38;2.83;;;19.70;86.50;;;;;;6115274;23;20006;-80
2023/09/17 11:36:32;;;;;;;4.82;2.70;;;19.90;86.50;;;;;;6152426;23;20005;-81
2023/09/17 11:39:04;;;;;;;5.50;3.42;;;19.80;86.40;;;;;;6128121;23;20026;-80
2023/09/17 11:41:33;;;;;;;5.15;3.15;;;19.80;86.40;;;;;;6152726;23;20006;-81
2023/09/17 11:44:03;;;;;;;4.78;2.47;;;19.80;86.50;;;;;;6162956;22;20089;-81
2023/09/17 11:46:34;;;;;;;5.63;3.67;;;19.80;86.60;;;;;;6215783;22;20012;-81
2023/09/17 11:49:00;;;;;;;4.68;3.10;;;19.80;86.70;;;;;;6189412;22;20240;-81
2023/09/17 11:51:28;;;;;;;5.15;3.50;;;19.90;86.70;;;;;;6181522;23;20009;-80
2023/09/17 11:53:59;;;;;;;4.88;2.90;;;20.00;86.70;;;;;;6156779;23;20009;-81
2023/09/17 11:56:27;;;;;;;5.00;2.90;;;20.00;86.80;;;;;;6169881;23;20013;-81
2023/09/17 11:59:10;;;;;;;3.80;2.45;;;20.00;86.90;;;;;;6139676;23;21002;-81
2023/09/17 12:01:42;;;;;;;5.13;3.15;;;20.00;87.00;;;;;;6132628;23;20021;-80
2023/09/17 12:04:10;;;;;;;5.85;3.75;;;20.00;87.00;;;;;;6157075;23;20437;-81
2023/09/17 12:06:42;;;;;;;5.03;3.47;;;19.90;87.00;;;;;;6106193;23;20088;-81
2023/09/17 12:09:18;;;;;;;6.25;3.80;;;20.00;87.20;;;;;;6153636;23;20008;-82
2023/09/17 12:19:18;;;;;;;3.17;2.30;;;19.90;87.50;;;;;;6155722;23;20017;-82
2023/09/17 12:21:48;;;;;;;4.68;3.20;;;19.90;87.70;;;;;;6163577;23;20016;-83
2023/09/17 12:24:28;;;;;;;4.22;2.97;;;19.80;87.70;;;;;;6156156;23;20009;-83
2023/09/17 12:27:19;;;;;;;3.67;2.43;;;19.90;87.90;;;;;;6181708;23;20055;-82
2023/09/17 12:29:46;;;;;;;4.57;2.67;;;19.90;87.80;;;;;;6170748;23;20159;-82
2023/09/17 12:32:14;;;;;;;3.75;2.42;;;19.90;87.70;;;;;;6128639;23;20006;-81
2023/09/17 12:34:40;;;;;;;5.00;3.30;;;20.00;87.90;;;;;;6097411;23;20005;-82
2023/09/17 12:37:11;;;;;;;5.50;3.78;;;20.00;87.80;;;;;;6122574;23;20480;-82
2023/09/17 12:39:42;;;;;;;4.45;2.85;;;20.00;87.60;;;;;;6139797;23;20028;-82
2023/09/17 12:42:08;;;;;;;4.93;3.20;;;20.00;87.60;;;;;;6066820;23;20005;-80
2023/09/17 12:44:34;;;;;;;3.20;2.40;;;20.20;87.60;;;;;;6073156;23;20474;-82
2023/09/17 12:47:04;;;;;;;5.80;3.45;;;20.10;87.60;;;;;;6085472;23;20007;-81
2023/09/17 12:49:30;;;;;;;5.77;3.67;;;20.10;87.60;;;;;;6069702;23;20015;-82
2023/09/17 12:51:56;;;;;;;5.13;3.47;;;20.30;87.60;;;;;;6025002;23;20015;-82
2023/09/17 12:54:23;;;;;;;4.88;3.33;;;20.30;87.50;;;;;;6014731;23;20475;-82
2023/09/17 12:57:00;;;;;;;6.35;3.95;;;20.40;87.50;;;;;;5972674;23;20012;-84
2023/09/17 12:59:38;;;;;;;4.85;3.28;;;20.40;87.50;;;;;;5956676;23;20023;-81
2023/09/17 13:02:06;;;;;;;5.28;3.58;;;20.50;87.40;;;;;;5919909;23;20021;-80
2023/09/17 13:04:35;;;;;;;4.13;2.83;;;20.60;87.30;;;;;;5993818;23;20135;-81
2023/09/17 13:07:02;;;;;;;6.63;3.67;;;20.70;87.00;;;;;;5945646;23;20015;-80
2023/09/17 13:09:32;;;;;;;5.30;3.42;;;20.80;86.90;;;;;;6009802;23;20015;-81
2023/09/17 13:12:01;;;;;;;5.40;3.70;;;20.80;86.70;;;;;;6008818;23;20079;-80
2023/09/17 13:14:47;;;;;;;5.20;3.50;;;20.90;86.80;;;;;;5979800;23;20028;-82
2023/09/17 13:17:14;;;;;;;5.50;3.50;;;20.90;86.90;;;;;;6005642;23;20007;-79
2023/09/17 13:19:40;;;;;;;7.20;3.83;;;20.90;86.90;;;;;;6011219;23;20122;-80
2023/09/17 13:22:06;;;;;;;4.13;3.08;;;21.00;86.90;;;;;;6020167;23;20343;-80
2023/09/17 13:24:34;;;;;;;3.72;2.78;;;21.10;86.80;;;;;;6093585;23;20022;-81
2023/09/17 13:27:04;;;;;;;5.00;3.42;;;21.20;86.70;;;;;;6089825;23;20046;-80
2023/09/17 13:29:37;;;;;;;4.83;3.23;;;21.30;86.80;;;;;;6066782;23;20014;-79
2023/09/17 13:32:09;;;;;;;4.05;2.45;;;21.40;86.80;;;;;;6054466;23;20237;-77
2023/09/17 13:34:38;;;;;;;4.60;2.97;;;21.30;86.70;;;;;;6127969;23;20438;-80
2023/09/17 13:37:04;;;;;;;3.65;2.63;;;21.30;86.80;;;;;;6102523;23;20008;-77
2023/09/17 13:39:33;;;;;;;4.63;3.10;;;21.40;86.90;;;;;;6151422;23;20492;-81
2023/09/17 13:41:59;;;;;;;5.00;3.03;;;21.50;86.90;;;;;;6153340;23;20146;-78
2023/09/17 13:44:25;;;;;;;4.85;3.25;;;21.50;86.80;;;;;;6132775;23;20373;-80
2023/09/17 13:46:52;;;;;;;4.85;3.00;;;21.60;86.70;;;;;;6185926;23;20024;-80
2023/09/17 13:49:18;;;;;;;4.50;3.05;;;21.50;86.70;;;;;;6129964;23;20120;-79
2023/09/17 13:55:27;;;;;;;4.73;3.13;;;21.50;86.70;;;;;;6203187;23;20033;-79
2023/09/17 13:57:58;;;;;;;4.47;2.47;;;21.70;86.70;;;;;;6199371;23;20041;-79
2023/09/17 14:00:27;;;;;;;5.00;2.83;;;21.60;86.60;;;;;;6162418;23;20625;-78
2023/09/17 14:03:14;;;;;;;5.07;3.00;;;21.60;86.70;;;;;;6170976;23;20021;-78
2023/09/17 14:05:41;;;;;;;4.43;2.92;;;21.60;86.70;;;;;;6152774;23;20010;-79
2023/09/17 14:08:07;;;;;;;3.67;2.35;;;21.70;86.70;;;;;;6146448;23;20022;-79
2023/09/17 14:10:33;;;;;;;2.83;2.03;;;21.70;86.60;;;;;;6098167;23;20018;-79
2023/09/17 14:13:08;;;;;;;3.60;2.22;;;21.70;86.70;;;;;;6167991;23;19993;-82
2023/09/17 14:15:39;;;;;;;3.63;2.10;;;21.70;86.70;;;;;;6141397;23;20018;-83
2023/09/17 14:21:24;;;;;;;3.92;2.55;;;21.70;86.60;;;;;;6104224;23;20022;-83
2023/09/17 14:23:50;;;;;;;2.92;2.20;;;21.70;86.60;;;;;;6052798;23;20025;-81
2023/09/17 14:26:18;;;;;;;3.70;2.28;;;21.70;86.70;;;;;;6077912;23;20525;-82
2023/09/17 14:28:45;;;;;;;3.78;2.47;;;21.70;86.80;;;;;;6064297;23;20015;-81
2023/09/17 14:31:11;;;;;;;2.20;1.70;;;21.70;86.90;;;;;;6052376;23;20027;-82
2023/09/17 14:33:37;;;;;;;3.28;2.03;;;21.60;86.80;;;;;;6031730;23;20042;-81
2023/09/17 14:36:14;;;;;;;3.58;2.28;;;21.60;86.90;;;;;;5998683;23;20079;-83
2023/09/17 14:38:45;;;;;;;2.85;2.10;;;21.60;87.00;;;;;;5964409;24;20016;-81
2023/09/17 14:41:16;;;;;;;2.47;1.88;;;21.60;87.00;;;;;;5921146;24;20045;-82
2023/09/17 14:43:44;;;;;;;3.05;2.20;;;21.60;87.00;;;;;;5862831;24;20077;-80
2023/09/17 14:46:16;;;;;;;2.70;2.00;;;21.50;86.80;;;;;;5863448;24;20022;-80
2023/09/17 14:48:48;;;;;;;3.67;2.47;;;21.60;86.90;;;;;;5851400;24;20009;-79
2023/09/17 14:51:14;;;;;;;3.70;2.22;;;21.60;86.80;;;;;;5836223;24;20033;-79
2023/09/17 14:53:57;;;;;;;3.17;2.17;;;21.60;86.80;;;;;;5812459;24;20034;-79
2023/09/17 14:56:30;;;;;;;2.20;1.90;;;21.60;86.80;;;;;;5910818;24;20051;-80
2023/09/17 14:58:57;;;;;;;3.38;2.22;;;21.70;86.90;;;;;;5923624;24;20041;-80
2023/09/17 15:01:23;;;;;;;2.30;1.75;;;21.70;86.90;;;;;;5916448;24;20472;-81
2023/09/17 15:03:52;;;;;;;2.58;1.90;;;21.70;86.80;;;;;;5907493;24;20100;-81
2023/09/17 15:06:18;;;;;;;3.78;2.33;;;21.70;86.80;;;;;;5940502;23;20116;-80
2023/09/17 15:08:44;;;;;;;3.22;1.85;;;21.60;86.80;;;;;;6007735;23;20125;-80
2023/09/17 15:11:40;;;;;;;2.88;2.08;;;21.70;86.90;;;;;;6037426;23;20344;-82
2023/09/17 15:16:56;;;;;;;3.03;2.33;;;21.80;86.80;;;;;;6081186;23;20018;-82
2023/09/17 15:19:24;;;;;;;2.13;1.80;;;21.80;86.80;;;;;;6023794;23;20096;-79
2023/09/17 15:21:50;;;;;;;3.15;2.05;;;21.80;86.70;;;;;;6010558;23;20044;-78
2023/09/17 15:24:16;;;;;;;3.30;2.35;;;21.80;86.80;;;;;;6076056;23;20011;-78
2023/09/17 15:26:43;;;;;;;3.05;2.40;;;21.90;86.80;;;;;;6074664;23;20022;-79
2023/09/17 15:29:11;;;;;;;5.05;2.70;;;21.90;86.70;;;;;;6067921;23;20025;-83
2023/09/17 15:31:38;;;;;;;4.35;2.85;;;22.00;86.80;;;;;;6064289;23;20167;-82
2023/09/17 15:34:06;;;;;;;3.55;2.53;;;21.90;86.70;;;;;;6096636;23;20379;-79
2023/09/17 15:36:32;;;;;;;3.03;2.30;;;21.90;86.70;;;;;;6083526;23;20027;-80